Time;durP1;ratioP1;P1;durP2;ratioP2;P2;SDS_P1;SDS_P2;PMS_P1;PMS_P2;Temp;Humidity;BMP_temperature;BMP_pressure;BME280_temperature;BME280_humidity;BME280_pressure;Samples;Min_cycle;Max_cycle;Signal;HPM_P1;HPM_P2
2020/12/01 00:00:52;;;;;;;40.17;7.88;;;9.10;99.90;;;;;;5079134;28;20024;-84
2020/12/01 00:03:18;;;;;;;39.20;6.72;;;9.10;99.90;;;;;;5078670;28;20576;-84
2020/12/01 00:05:43;;;;;;;46.85;7.60;;;9.10;99.90;;;;;;5081029;28;20024;-84
2020/12/01 00:08:09;;;;;;;34.33;6.88;;;9.10;99.90;;;;;;5097671;28;20032;-83
2020/12/01 00:10:35;;;;;;;47.25;8.65;;;9.10;99.90;;;;;;5079429;28;20086;-84
2020/12/01 00:13:02;;;;;;;28.80;5.70;;;9.10;99.90;;;;;;5079454;28;20024;-84
2020/12/01 00:15:27;;;;;;;43.95;7.32;;;9.10;99.90;;;;;;5079957;28;20127;-83
2020/12/01 00:17:53;;;;;;;37.75;7.85;;;9.10;99.90;;;;;;5063233;28;20123;-83
2020/12/01 00:20:20;;;;;;;30.27;6.00;;;9.10;99.90;;;;;;5049778;28;20492;-83
2020/12/01 00:22:46;;;;;;;28.65;7.70;;;9.10;99.90;;;;;;5097452;28;20028;-83
2020/12/01 00:25:13;;;;;;;35.28;6.18;;;9.10;99.90;;;;;;5099652;28;20035;-84
2020/12/01 00:27:41;;;;;;;29.70;5.95;;;9.10;99.90;;;;;;5078160;28;20024;-83
2020/12/01 00:30:20;;;;;;;34.72;5.85;;;9.10;99.90;;;;;;5063428;28;20067;-84
2020/12/01 00:32:46;;;;;;;33.75;6.28;;;9.10;99.90;;;;;;5099137;28;20028;-84
2020/12/01 00:35:16;;;;;;;25.23;5.28;;;9.10;99.90;;;;;;5061910;28;20032;-83
2020/12/01 00:37:41;;;;;;;31.63;6.43;;;9.10;99.90;;;;;;5097276;28;20099;-84
2020/12/01 00:40:08;;;;;;;28.80;5.28;;;9.00;99.90;;;;;;5061986;28;20546;-83
2020/12/01 00:42:34;;;;;;;36.28;5.75;;;9.00;99.90;;;;;;5096472;28;20086;-84
2020/12/01 00:45:00;;;;;;;42.15;7.40;;;9.00;99.90;;;;;;5079530;28;20016;-84
2020/12/01 00:47:25;;;;;;;36.22;6.68;;;9.00;99.90;;;;;;5079359;28;20093;-83
2020/12/01 00:49:51;;;;;;;36.60;7.43;;;9.00;99.90;;;;;;5063011;28;20389;-84
2020/12/01 00:52:17;;;;;;;26.23;5.30;;;9.00;99.90;;;;;;5090267;28;20059;-93
2020/12/01 00:54:43;;;;;;;22.27;4.15;;;8.90;99.90;;;;;;5081644;28;20032;-84
2020/12/01 00:57:08;;;;;;;21.20;5.03;;;8.90;99.90;;;;;;5097882;28;20025;-83
2020/12/01 00:59:34;;;;;;;17.95;4.53;;;8.90;99.90;;;;;;5079995;28;20551;-86
2020/12/01 01:02:00;;;;;;;22.63;4.68;;;8.90;99.90;;;;;;5061492;28;20032;-82
2020/12/01 01:04:25;;;;;;;26.65;4.63;;;8.90;99.90;;;;;;5081145;28;20077;-83
2020/12/01 01:06:51;;;;;;;27.27;4.72;;;8.90;99.90;;;;;;5061189;28;20032;-84
2020/12/01 01:09:18;;;;;;;32.67;5.32;;;8.90;99.90;;;;;;5077333;28;20410;-85
2020/12/01 01:11:44;;;;;;;31.42;5.28;;;8.90;99.90;;;;;;5043972;28;20125;-85
2020/12/01 01:14:10;;;;;;;28.30;4.75;;;8.90;99.90;;;;;;5095798;28;20369;-84
2020/12/01 01:16:40;;;;;;;33.70;6.00;;;8.90;99.90;;;;;;5074270;28;20051;-84
2020/12/01 01:19:06;;;;;;;31.45;5.53;;;8.90;99.90;;;;;;5092000;28;20036;-83
2020/12/01 01:21:31;;;;;;;26.60;5.32;;;8.90;99.90;;;;;;5075150;28;20071;-85
2020/12/01 01:23:57;;;;;;;29.83;5.28;;;8.90;99.90;;;;;;5083789;28;20031;-90
2020/12/01 01:26:22;;;;;;;28.85;5.15;;;8.90;99.90;;;;;;5099869;28;20020;-84
2020/12/01 01:28:48;;;;;;;26.95;6.10;;;8.90;99.90;;;;;;5074443;28;20104;-86
2020/12/01 01:31:18;;;;;;;23.98;4.25;;;8.90;99.90;;;;;;5069889;28;20059;-84
2020/12/01 01:33:43;;;;;;;17.20;4.20;;;8.80;99.90;;;;;;5067065;28;20039;-84
2020/12/01 01:36:09;;;;;;;26.55;5.63;;;8.80;99.90;;;;;;5091163;28;20042;-85
2020/12/01 01:38:35;;;;;;;21.95;3.67;;;8.80;99.90;;;;;;5056769;28;20090;-83
2020/12/01 01:41:00;;;;;;;27.85;4.28;;;8.80;99.90;;;;;;5063801;28;20036;-85
2020/12/01 01:43:26;;;;;;;31.35;5.10;;;8.80;99.90;;;;;;5073177;28;20058;-84
2020/12/01 01:45:52;;;;;;;23.63;4.13;;;8.90;99.90;;;;;;5041516;28;20081;-84
2020/12/01 01:48:28;;;;;;;24.20;4.50;;;8.90;99.90;;;;;;5039473;28;20028;-84
2020/12/01 01:50:57;;;;;;;23.70;3.25;;;8.90;99.90;;;;;;5056025;28;20029;-84
2020/12/01 01:53:23;;;;;;;18.27;3.53;;;8.90;99.90;;;;;;5056335;28;20032;-84
2020/12/01 01:55:53;;;;;;;19.85;4.13;;;8.90;99.90;;;;;;5056265;28;20466;-83
2020/12/01 01:58:22;;;;;;;20.27;4.20;;;9.00;99.90;;;;;;5056672;28;20480;-84
2020/12/01 02:00:56;;;;;;;24.33;4.43;;;9.00;99.90;;;;;;5075363;28;20052;-83
2020/12/01 02:03:34;;;;;;;15.88;3.67;;;9.00;99.90;;;;;;5055916;28;20021;-84
2020/12/01 02:06:01;;;;;;;32.17;5.03;;;9.00;99.90;;;;;;5078564;28;20032;-84
2020/12/01 02:08:28;;;;;;;18.30;4.10;;;9.00;99.90;;;;;;5055855;28;20367;-83
2020/12/01 02:10:56;;;;;;;27.67;4.05;;;9.00;99.90;;;;;;5055565;28;20115;-84
2020/12/01 02:13:35;;;;;;;24.60;4.43;;;8.90;99.90;;;;;;5056319;28;20025;-85
2020/12/01 02:16:00;;;;;;;26.95;4.95;;;8.80;99.90;;;;;;5055619;28;20020;-84
2020/12/01 02:18:28;;;;;;;21.48;4.93;;;8.80;99.90;;;;;;5039240;28;20086;-84
2020/12/01 02:20:54;;;;;;;17.70;4.68;;;8.90;99.90;;;;;;5038997;28;20025;-85
2020/12/01 02:23:20;;;;;;;21.50;4.75;;;8.90;99.90;;;;;;5039935;28;20079;-83
2020/12/01 02:25:45;;;;;;;18.35;4.30;;;8.90;99.90;;;;;;5038600;28;20031;-83
2020/12/01 02:28:11;;;;;;;20.27;3.88;;;8.90;99.90;;;;;;5055831;28;20466;-85
2020/12/01 02:30:36;;;;;;;24.17;4.22;;;8.90;99.90;;;;;;5036214;28;20153;-84
2020/12/01 02:33:02;;;;;;;24.88;5.20;;;8.90;99.90;;;;;;5052287;28;20090;-85
2020/12/01 02:35:28;;;;;;;20.35;5.13;;;9.00;99.90;;;;;;5035478;28;20029;-85
2020/12/01 02:37:53;;;;;;;21.65;4.95;;;9.00;99.90;;;;;;5019085;28;20033;-83
2020/12/01 02:40:19;;;;;;;19.30;3.85;;;9.00;99.90;;;;;;5052420;28;20382;-85
2020/12/01 02:42:50;;;;;;;24.80;4.75;;;9.00;99.90;;;;;;5018801;28;20040;-83
2020/12/01 02:45:16;;;;;;;26.65;4.72;;;9.00;99.90;;;;;;5053118;28;20430;-84
2020/12/01 02:47:42;;;;;;;29.15;4.95;;;9.00;99.90;;;;;;5053238;28;20061;-84
2020/12/01 02:50:08;;;;;;;27.67;4.57;;;9.00;99.90;;;;;;5052333;28;20037;-82
2020/12/01 02:52:33;;;;;;;17.92;3.95;;;9.00;99.90;;;;;;5035630;28;20051;-84
2020/12/01 02:54:59;;;;;;;20.60;3.78;;;9.00;99.90;;;;;;5052481;28;20030;-84
2020/12/01 02:57:24;;;;;;;17.33;3.22;;;9.00;99.90;;;;;;5020623;28;20083;-84
2020/12/01 02:59:50;;;;;;;19.50;3.83;;;9.00;99.90;;;;;;5035193;28;20033;-84
2020/12/01 03:02:16;;;;;;;19.85;4.25;;;9.00;99.90;;;;;;5035296;28;20040;-84
2020/12/01 03:04:41;;;;;;;28.25;4.63;;;9.00;99.90;;;;;;5051868;28;20029;-85
2020/12/01 03:07:07;;;;;;;21.15;3.95;;;9.00;99.90;;;;;;5051863;28;20053;-84
2020/12/01 03:09:33;;;;;;;16.20;3.40;;;9.00;99.90;;;;;;5018696;28;20410;-82
2020/12/01 03:11:58;;;;;;;24.60;4.03;;;9.00;99.90;;;;;;5018689;28;20475;-83
2020/12/01 03:14:25;;;;;;;19.85;4.43;;;9.00;99.90;;;;;;5035036;28;20471;-85
2020/12/01 03:16:50;;;;;;;24.35;6.57;;;9.00;99.90;;;;;;5051945;28;20115;-85
2020/12/01 03:19:17;;;;;;;29.40;6.90;;;9.10;99.90;;;;;;5035048;28;20502;-84
2020/12/01 03:21:43;;;;;;;37.72;10.35;;;9.10;99.90;;;;;;5051371;28;20863;-84
2020/12/01 03:24:09;;;;;;;48.88;11.55;;;9.20;99.90;;;;;;5051830;28;20032;-83
2020/12/01 03:26:34;;;;;;;42.83;12.00;;;9.20;99.90;;;;;;5040682;28;20124;-86
2020/12/01 03:29:00;;;;;;;46.17;11.35;;;9.20;99.90;;;;;;5037168;28;20094;-85
2020/12/01 03:31:26;;;;;;;51.20;10.25;;;9.20;99.90;;;;;;5070990;28;20481;-86
2020/12/01 03:33:51;;;;;;;55.85;9.98;;;9.20;99.90;;;;;;5037039;28;20041;-85
2020/12/01 03:36:18;;;;;;;63.45;11.50;;;9.20;99.90;;;;;;5039162;28;20478;-85
2020/12/01 03:38:45;;;;;;;52.47;11.25;;;9.30;99.90;;;;;;5075927;28;20135;-85
2020/12/01 03:41:11;;;;;;;56.65;11.38;;;9.30;99.90;;;;;;5076902;28;20044;-84
2020/12/01 03:43:37;;;;;;;52.05;9.85;;;9.30;99.90;;;;;;5084248;28;20538;-85
2020/12/01 03:46:04;;;;;;;64.10;12.05;;;9.30;99.90;;;;;;5056050;28;20025;-84
2020/12/01 03:48:30;;;;;;;53.22;10.73;;;9.40;99.90;;;;;;5073231;28;20040;-86
2020/12/01 03:50:56;;;;;;;58.90;11.45;;;9.40;99.90;;;;;;5089627;28;20036;-84
2020/12/01 03:53:22;;;;;;;59.63;11.13;;;9.40;99.90;;;;;;5082042;28;20462;-82
2020/12/01 03:55:47;;;;;;;63.17;12.45;;;9.40;99.90;;;;;;5051908;28;20051;-83
2020/12/01 03:58:13;;;;;;;48.65;10.23;;;9.30;99.90;;;;;;5072288;28;20477;-84
2020/12/01 04:00:39;;;;;;;57.97;10.48;;;9.30;99.90;;;;;;5075717;28;20096;-88
2020/12/01 04:03:04;;;;;;;55.10;11.38;;;9.30;99.90;;;;;;5094878;28;20034;-84
2020/12/01 04:05:30;;;;;;;50.25;10.02;;;9.40;99.90;;;;;;5094071;28;20044;-86
2020/12/01 04:07:57;;;;;;;48.83;10.35;;;9.40;99.90;;;;;;5089188;28;20080;-82
2020/12/01 04:10:25;;;;;;;53.95;9.85;;;9.30;99.90;;;;;;5068927;28;20070;-84
2020/12/01 04:12:52;;;;;;;66.22;11.20;;;9.30;99.90;;;;;;5090972;28;20032;-83
2020/12/01 04:15:18;;;;;;;45.08;8.80;;;9.30;99.90;;;;;;5096019;28;20105;-82
2020/12/01 04:17:45;;;;;;;47.97;10.23;;;9.30;99.90;;;;;;5097341;28;20079;-84
2020/12/01 04:20:11;;;;;;;54.83;10.18;;;9.30;99.90;;;;;;5097704;28;20039;-85
2020/12/01 04:22:37;;;;;;;48.72;9.82;;;9.30;99.90;;;;;;5090688;28;20025;-85
2020/12/01 04:25:06;;;;;;;57.78;9.90;;;9.30;99.90;;;;;;5088411;28;20039;-87
2020/12/01 04:27:32;;;;;;;45.45;9.93;;;9.30;99.90;;;;;;5097626;28;20099;-91
2020/12/01 04:29:58;;;;;;;58.65;11.48;;;9.30;99.90;;;;;;5100021;28;20059;-86
2020/12/01 04:32:24;;;;;;;46.42;7.93;;;9.30;99.90;;;;;;5085467;28;20028;-86
2020/12/01 04:34:49;;;;;;;51.10;10.35;;;9.30;99.90;;;;;;5068298;27;20023;-85
2020/12/01 04:37:15;;;;;;;41.70;8.55;;;9.20;99.90;;;;;;5097978;28;20032;-86
2020/12/01 04:39:41;;;;;;;38.42;8.02;;;9.20;99.90;;;;;;5087677;28;20044;-86
2020/12/01 04:42:07;;;;;;;32.00;8.45;;;9.20;99.90;;;;;;5084916;28;20432;-85
2020/12/01 04:44:48;;;;;;;39.58;8.48;;;9.20;99.90;;;;;;5084041;28;20024;-86
2020/12/01 04:47:21;;;;;;;42.75;8.52;;;9.20;99.90;;;;;;5098376;28;20043;-86
2020/12/01 04:50:02;;;;;;;38.55;7.60;;;9.20;99.90;;;;;;5077446;28;20028;-85
2020/12/01 04:53:02;;;;;;;44.55;8.77;;;9.20;99.90;;;;;;5095450;28;20021;-84
2020/12/01 04:56:04;;;;;;;39.30;7.85;;;9.20;99.90;;;;;;5077177;28;20028;-85
2020/12/01 04:58:55;;;;;;;33.75;6.63;;;9.20;99.90;;;;;;5094878;28;20421;-85
2020/12/01 05:01:52;;;;;;;35.17;8.40;;;9.10;99.90;;;;;;5076786;28;20078;-85
2020/12/01 05:04:32;;;;;;;43.55;7.50;;;9.10;99.90;;;;;;5094881;28;20111;-85
2020/12/01 05:07:35;;;;;;;52.30;8.48;;;9.10;99.90;;;;;;5079878;28;20438;-84
2020/12/01 05:10:09;;;;;;;44.22;8.25;;;9.10;99.90;;;;;;5060130;28;20042;-85
2020/12/01 05:12:39;;;;;;;41.97;8.80;;;9.10;99.90;;;;;;5076907;28;20061;-86
2020/12/01 05:15:26;;;;;;;44.03;8.85;;;9.10;99.90;;;;;;5094749;28;20032;-86
2020/12/01 05:18:15;;;;;;;46.63;9.27;;;9.10;99.90;;;;;;5076414;28;20035;-84
2020/12/01 05:20:50;;;;;;;53.90;9.90;;;9.10;99.90;;;;;;5076775;28;20358;-84
2020/12/01 05:23:20;;;;;;;34.13;7.63;;;9.10;99.90;;;;;;5094710;28;20107;-84
2020/12/01 05:25:57;;;;;;;47.80;9.23;;;9.10;99.90;;;;;;5076327;28;20024;-84
2020/12/01 05:28:23;;;;;;;50.80;9.32;;;9.10;99.90;;;;;;5094480;28;20477;-85
2020/12/01 05:30:59;;;;;;;45.92;10.32;;;9.10;99.90;;;;;;5072343;28;20052;-85
2020/12/01 05:33:28;;;;;;;42.42;9.43;;;9.10;99.90;;;;;;5073288;28;20055;-85
2020/12/01 05:35:58;;;;;;;51.58;9.18;;;9.10;99.90;;;;;;5072682;28;20029;-85
2020/12/01 05:38:24;;;;;;;36.97;8.82;;;9.20;99.90;;;;;;5073434;28;20024;-84
2020/12/01 05:41:15;;;;;;;48.63;8.82;;;9.10;99.90;;;;;;5055592;28;20025;-84
2020/12/01 05:43:43;;;;;;;40.30;8.77;;;9.10;99.90;;;;;;5074239;28;20035;-85
2020/12/01 05:46:22;;;;;;;54.13;9.50;;;9.10;99.90;;;;;;5057529;28;20078;-84
2020/12/01 05:49:02;;;;;;;58.60;10.50;;;9.10;99.90;;;;;;5072740;28;20032;-83
2020/12/01 05:51:43;;;;;;;55.15;9.82;;;9.10;99.90;;;;;;5075261;28;20056;-84
2020/12/01 05:54:20;;;;;;;66.90;11.23;;;9.20;99.90;;;;;;5075324;28;20021;-85
2020/12/01 05:56:52;;;;;;;51.60;11.20;;;9.20;99.90;;;;;;5073556;28;20051;-85
2020/12/01 05:59:21;;;;;;;56.25;10.32;;;9.20;99.90;;;;;;5075739;28;20067;-85
2020/12/01 06:01:49;;;;;;;44.92;8.88;;;9.20;99.90;;;;;;5073142;28;20028;-84
2020/12/01 06:04:26;;;;;;;47.75;10.27;;;9.20;99.90;;;;;;5072508;28;20062;-83
2020/12/01 06:07:06;;;;;;;58.15;10.98;;;9.20;99.90;;;;;;5055793;28;20446;-84
2020/12/01 06:09:57;;;;;;;53.15;10.93;;;9.20;99.90;;;;;;5073234;28;20442;-85
2020/12/01 06:12:49;;;;;;;51.88;10.50;;;9.20;99.90;;;;;;5075576;28;20020;-84
2020/12/01 06:15:18;;;;;;;47.55;8.88;;;9.30;99.90;;;;;;5042783;28;20475;-84
2020/12/01 06:18:00;;;;;;;61.33;11.65;;;9.30;99.90;;;;;;5076261;28;20028;-83
2020/12/01 06:20:37;;;;;;;52.85;11.18;;;9.30;99.90;;;;;;5071453;28;20032;-85
2020/12/01 06:23:36;;;;;;;51.67;10.52;;;9.30;99.90;;;;;;5072005;28;20082;-87
2020/12/01 06:26:38;;;;;;;52.45;10.48;;;9.30;99.90;;;;;;5071833;28;20481;-84
2020/12/01 06:29:37;;;;;;;45.85;10.02;;;9.30;99.90;;;;;;5073161;28;20040;-86
2020/12/01 06:32:34;;;;;;;46.45;9.88;;;9.20;99.90;;;;;;5071990;28;20040;-85
2020/12/01 06:35:24;;;;;;;51.13;7.97;;;9.20;99.90;;;;;;5072276;28;20035;-85
2020/12/01 06:38:05;;;;;;;52.22;9.35;;;9.10;99.90;;;;;;5073416;28;20071;-85
2020/12/01 06:40:41;;;;;;;42.10;7.88;;;9.10;99.90;;;;;;5073399;28;20405;-85
2020/12/01 06:43:09;;;;;;;37.53;7.18;;;9.10;99.90;;;;;;5073127;28;20036;-84
2020/12/01 06:45:46;;;;;;;35.15;7.88;;;9.00;99.90;;;;;;5073747;28;20084;-85
2020/12/01 06:48:20;;;;;;;30.58;6.63;;;9.00;99.90;;;;;;5081613;28;20020;-84
2020/12/01 06:50:54;;;;;;;32.60;7.50;;;9.00;99.90;;;;;;5079017;28;20398;-84
2020/12/01 06:53:32;;;;;;;43.47;8.38;;;9.00;99.90;;;;;;5071795;28;20032;-83
2020/12/01 06:56:00;;;;;;;43.25;8.60;;;9.00;99.90;;;;;;5072939;28;20442;-84
2020/12/01 06:58:25;;;;;;;43.92;7.78;;;9.00;99.90;;;;;;5071675;28;20036;-85
2020/12/01 07:01:22;;;;;;;44.67;9.18;;;9.00;99.90;;;;;;5071294;28;20367;-84
2020/12/01 07:03:59;;;;;;;42.10;10.05;;;9.00;99.90;;;;;;5052604;28;20036;-85
2020/12/01 07:06:51;;;;;;;47.60;8.77;;;9.10;99.90;;;;;;5053227;28;20555;-85
2020/12/01 07:09:27;;;;;;;40.03;9.40;;;9.10;99.90;;;;;;5052029;28;20035;-85
2020/12/01 07:12:13;;;;;;;51.22;10.40;;;9.10;99.90;;;;;;5053642;28;20233;-83
2020/12/01 07:14:50;;;;;;;48.70;10.02;;;9.10;99.90;;;;;;5054194;28;20072;-91
2020/12/01 07:17:22;;;;;;;42.38;8.98;;;9.20;99.90;;;;;;5056583;28;20037;-83
2020/12/01 07:20:15;;;;;;;61.75;11.50;;;9.20;99.90;;;;;;5056826;28;20082;-85
2020/12/01 07:23:15;;;;;;;65.40;11.45;;;9.20;99.90;;;;;;5055299;28;20024;-87
2020/12/01 07:26:18;;;;;;;52.20;10.32;;;9.30;99.90;;;;;;5055593;28;20018;-85
2020/12/01 07:28:47;;;;;;;62.03;12.05;;;9.30;99.90;;;;;;5006381;28;20042;-84
2020/12/01 07:31:30;;;;;;;61.10;10.45;;;9.30;99.90;;;;;;5059725;28;20115;-84
2020/12/01 07:33:57;;;;;;;46.78;10.07;;;9.40;99.90;;;;;;5059288;28;20037;-84
2020/12/01 07:36:32;;;;;;;46.65;8.85;;;9.40;99.90;;;;;;5060756;28;20086;-84
2020/12/01 07:39:06;;;;;;;;;;;9.40;99.90;;;;;;5059269;28;20105;-84
2020/12/01 07:41:32;;;;;;;43.08;9.00;;;9.40;99.90;;;;;;5059107;28;19955;-83
2020/12/01 07:44:05;;;;;;;42.03;9.65;;;9.40;99.90;;;;;;5056081;28;20037;-85
2020/12/01 07:46:40;;;;;;;40.92;9.25;;;9.40;99.90;;;;;;5057045;28;20036;-84
2020/12/01 07:49:09;;;;;;;58.25;9.10;;;9.50;99.90;;;;;;5039985;28;20032;-85
2020/12/01 07:51:35;;;;;;;59.47;10.45;;;9.50;99.90;;;;;;5039043;28;20037;-85
2020/12/01 07:54:05;;;;;;;49.42;10.18;;;9.40;99.90;;;;;;5038897;28;20040;-84
2020/12/01 07:56:31;;;;;;;48.05;8.77;;;9.50;99.90;;;;;;5055712;28;20025;-84
2020/12/01 07:59:11;;;;;;;48.05;9.23;;;9.50;99.90;;;;;;5058120;28;20029;-85
2020/12/01 08:01:37;;;;;;;53.35;10.77;;;9.60;99.90;;;;;;5059397;28;20033;-85
2020/12/01 08:04:11;;;;;;;38.67;9.25;;;9.60;99.90;;;;;;5054949;28;20162;-86
2020/12/01 08:06:36;;;;;;;50.78;9.65;;;9.60;99.90;;;;;;5074649;28;20414;-86
2020/12/01 08:09:14;;;;;;;41.65;9.07;;;9.60;99.90;;;;;;5053173;28;20041;-85
2020/12/01 08:11:42;;;;;;;40.53;9.50;;;9.60;99.90;;;;;;5071591;28;20032;-85
2020/12/01 08:14:09;;;;;;;45.50;9.65;;;9.50;99.90;;;;;;5059315;28;20242;-84
2020/12/01 08:16:35;;;;;;;42.70;10.13;;;9.50;99.90;;;;;;5076103;28;20095;-86
2020/12/01 08:19:02;;;;;;;42.78;8.18;;;9.40;99.90;;;;;;5074715;28;20473;-85
2020/12/01 08:21:35;;;;;;;36.38;8.35;;;9.40;99.90;;;;;;5057660;28;20111;-86
2020/12/01 08:24:06;;;;;;;41.83;9.48;;;9.40;99.90;;;;;;5074342;28;20020;-85
2020/12/01 08:26:34;;;;;;;41.90;9.48;;;9.30;99.90;;;;;;5076545;28;20024;-85
2020/12/01 08:29:03;;;;;;;40.95;8.80;;;9.30;99.90;;;;;;5074897;28;20025;-88
2020/12/01 08:31:49;;;;;;;38.08;7.57;;;9.30;99.90;;;;;;5091043;28;20055;-85
2020/12/01 08:34:33;;;;;;;35.38;8.35;;;9.30;99.90;;;;;;5078254;28;20040;-85
2020/12/01 08:37:13;;;;;;;42.38;7.20;;;9.30;99.90;;;;;;5077859;28;20028;-86
2020/12/01 08:40:19;;;;;;;36.15;8.07;;;9.40;99.90;;;;;;5098307;28;20030;-86
2020/12/01 08:42:59;;;;;;;35.70;7.43;;;9.40;99.90;;;;;;5077921;28;20024;-88
2020/12/01 08:45:29;;;;;;;35.60;7.82;;;9.50;99.90;;;;;;5078735;28;20027;-85
2020/12/01 08:48:01;;;;;;;27.27;6.88;;;9.50;99.90;;;;;;5097107;28;20504;-86
2020/12/01 08:50:37;;;;;;;48.95;10.43;;;9.50;99.90;;;;;;5095275;28;20032;-84
2020/12/01 08:53:20;;;;;;;40.55;9.35;;;9.60;99.90;;;;;;5096640;28;20393;-85
2020/12/01 08:55:50;;;;;;;36.03;9.13;;;9.60;99.90;;;;;;5079320;28;20523;-85
2020/12/01 08:58:39;;;;;;;39.50;9.45;;;9.60;99.90;;;;;;5077963;28;20031;-85
2020/12/01 09:01:11;;;;;;;35.80;8.05;;;9.60;99.90;;;;;;5077657;28;20441;-85
2020/12/01 09:03:39;;;;;;;38.88;8.63;;;9.60;99.90;;;;;;5074249;28;20529;-85
2020/12/01 09:06:19;;;;;;;39.15;9.30;;;9.70;99.90;;;;;;5058934;28;20062;-86
2020/12/01 09:08:56;;;;;;;37.75;8.52;;;9.70;99.90;;;;;;5058069;28;20123;-85
2020/12/01 09:19:35;;;;;;;35.15;8.98;;;9.80;99.90;;;;;;5064620;28;20033;-86
2020/12/01 09:22:21;;;;;;;52.88;9.48;;;9.70;99.90;;;;;;5076628;28;20053;-86
2020/12/01 09:24:47;;;;;;;44.65;8.88;;;9.80;99.90;;;;;;5094243;28;20035;-84
2020/12/01 09:27:15;;;;;;;46.10;11.45;;;9.70;99.90;;;;;;5086615;28;20035;-85
2020/12/01 09:29:50;;;;;;;32.60;8.48;;;9.80;99.90;;;;;;5075859;28;20032;-85
2020/12/01 09:32:23;;;;;;;43.00;10.07;;;9.80;99.90;;;;;;5094606;28;20066;-85
2020/12/01 09:34:50;;;;;;;39.05;10.82;;;9.80;99.90;;;;;;5075499;28;20575;-87
2020/12/01 09:37:16;;;;;;;31.73;8.82;;;9.80;99.90;;;;;;5076159;28;20036;-84
2020/12/01 09:39:42;;;;;;;42.63;8.60;;;9.80;99.90;;;;;;5076645;28;20409;-84
2020/12/01 09:42:19;;;;;;;39.55;7.72;;;9.90;99.90;;;;;;5064949;28;20032;-85
2020/12/01 09:47:17;;;;;;;43.20;9.43;;;9.80;99.90;;;;;;5096731;28;20035;-83
2020/12/01 09:49:42;;;;;;;39.65;9.82;;;9.80;99.90;;;;;;5074235;28;20042;-85
2020/12/01 09:52:16;;;;;;;45.67;10.77;;;9.90;99.90;;;;;;5092616;28;20032;-85
2020/12/01 09:55:01;;;;;;;40.63;10.45;;;9.90;99.90;;;;;;5111809;28;20020;-83
2020/12/01 10:10:47;;;;;;;37.75;8.45;;;10.00;99.90;;;;;;5075082;28;20032;-84
2020/12/01 10:18:34;;;;;;;43.13;10.13;;;10.00;99.90;;;;;;5080566;28;20101;-84
2020/12/01 10:36:58;;;;;;;38.50;9.38;;;10.10;99.90;;;;;;5083015;28;20024;-84
2020/12/01 10:39:25;;;;;;;33.50;8.77;;;10.20;99.90;;;;;;5068745;28;20477;-84
2020/12/01 10:41:50;;;;;;;43.42;8.98;;;10.20;99.90;;;;;;5085313;28;20093;-85
2020/12/01 10:44:17;;;;;;;37.38;9.13;;;10.20;99.90;;;;;;5081593;28;20480;-84
2020/12/01 10:46:48;;;;;;;40.65;9.10;;;10.30;99.90;;;;;;5084049;28;20028;-84
2020/12/01 10:49:15;;;;;;;35.33;9.75;;;10.30;99.90;;;;;;5080326;28;20028;-85
2020/12/01 10:51:41;;;;;;;37.08;8.70;;;10.30;99.90;;;;;;5061301;28;20082;-84
2020/12/01 10:54:07;;;;;;;35.38;8.43;;;10.40;99.90;;;;;;5066679;28;20028;-83
2020/12/01 10:56:32;;;;;;;35.35;8.15;;;10.40;99.90;;;;;;5102544;28;20020;-85
2020/12/01 10:58:58;;;;;;;40.60;9.50;;;10.40;99.90;;;;;;5082522;28;20089;-85
2020/12/01 11:01:24;;;;;;;28.60;8.05;;;10.40;99.90;;;;;;5098877;28;20103;-85
2020/12/01 11:03:50;;;;;;;32.33;8.75;;;10.40;99.90;;;;;;5047652;28;20032;-84
2020/12/01 11:06:15;;;;;;;32.33;7.10;;;10.40;99.90;;;;;;5065554;28;20036;-85
2020/12/01 11:08:41;;;;;;;41.53;8.40;;;10.40;99.90;;;;;;5048017;28;20088;-84
2020/12/01 11:11:07;;;;;;;42.03;9.63;;;10.30;99.90;;;;;;5086207;28;20027;-85
2020/12/01 11:13:39;;;;;;;43.63;9.52;;;10.30;99.90;;;;;;5059066;28;20024;-84
2020/12/01 11:16:06;;;;;;;39.88;7.85;;;10.40;99.90;;;;;;5082301;28;20038;-84
2020/12/01 11:18:31;;;;;;;34.28;7.70;;;10.40;99.90;;;;;;5051356;28;20024;-84
2020/12/01 11:20:57;;;;;;;33.88;8.02;;;10.40;99.90;;;;;;5103280;28;20016;-84
2020/12/01 11:23:22;;;;;;;44.38;9.18;;;10.50;99.90;;;;;;5121413;28;20035;-84
2020/12/01 11:25:48;;;;;;;35.13;7.55;;;10.50;99.90;;;;;;5086860;28;20039;-85
2020/12/01 11:28:14;;;;;;;42.40;7.70;;;10.50;99.90;;;;;;5067654;28;20249;-84
2020/12/01 11:30:39;;;;;;;36.85;8.00;;;10.60;99.90;;;;;;5105752;28;20032;-83
2020/12/01 11:33:05;;;;;;;43.85;9.10;;;10.60;99.90;;;;;;5059286;28;20147;-85
2020/12/01 11:35:30;;;;;;;48.50;9.35;;;10.60;99.90;;;;;;5059385;28;20040;-84
2020/12/01 11:37:56;;;;;;;41.10;9.05;;;10.50;99.90;;;;;;5076243;28;20028;-86
2020/12/01 11:40:22;;;;;;;43.08;8.75;;;10.50;99.90;;;;;;5060521;28;20033;-84
2020/12/01 11:42:48;;;;;;;47.38;9.85;;;10.40;99.90;;;;;;5084882;28;20028;-84
2020/12/01 11:45:13;;;;;;;37.03;7.97;;;10.40;99.90;;;;;;5099569;28;20020;-85
2020/12/01 11:47:39;;;;;;;41.60;11.75;;;10.50;99.90;;;;;;5099092;28;20020;-83
2020/12/01 11:50:08;;;;;;;45.28;12.23;;;10.50;99.90;;;;;;5082571;28;20128;-88
2020/12/01 11:52:33;;;;;;;46.00;11.48;;;10.50;99.90;;;;;;5083168;28;20028;-84
2020/12/01 11:55:00;;;;;;;39.85;9.82;;;10.60;99.90;;;;;;5085013;28;20035;-87
2020/12/01 11:57:34;;;;;;;41.13;8.73;;;10.50;99.90;;;;;;5065370;28;20032;-84
2020/12/01 12:00:00;;;;;;;39.35;9.50;;;10.60;99.90;;;;;;5090673;28;20058;-83
2020/12/01 12:02:25;;;;;;;35.58;8.60;;;10.70;99.90;;;;;;5047572;28;20127;-83
2020/12/01 12:04:51;;;;;;;51.30;8.95;;;10.70;99.90;;;;;;5079398;28;20103;-84
2020/12/01 12:07:17;;;;;;;42.78;7.95;;;10.70;99.90;;;;;;5059211;28;20541;-83
2020/12/01 12:09:45;;;;;;;41.60;9.23;;;10.60;99.90;;;;;;5061945;28;20032;-85
2020/12/01 12:12:11;;;;;;;40.50;7.70;;;10.50;99.90;;;;;;5066612;28;20056;-84
2020/12/01 12:14:36;;;;;;;37.08;8.07;;;10.50;99.90;;;;;;5067554;28;20029;-83
2020/12/01 12:17:02;;;;;;;41.05;9.35;;;10.40;99.90;;;;;;5063086;28;20113;-84
2020/12/01 12:19:28;;;;;;;33.35;7.60;;;10.30;99.90;;;;;;5061761;28;20485;-86
2020/12/01 12:21:53;;;;;;;37.83;6.85;;;10.40;99.90;;;;;;5042770;28;20039;-84
2020/12/01 12:24:19;;;;;;;34.42;8.23;;;10.40;99.90;;;;;;5043455;28;20025;-84
2020/12/01 12:26:45;;;;;;;33.85;7.68;;;10.40;99.90;;;;;;5046145;28;20181;-85
2020/12/01 12:29:11;;;;;;;33.67;8.45;;;10.40;99.90;;;;;;5077012;28;20037;-86
2020/12/01 12:31:36;;;;;;;37.53;7.07;;;10.40;99.90;;;;;;5076591;28;20112;-85
2020/12/01 12:34:02;;;;;;;42.25;9.52;;;10.40;99.90;;;;;;5076885;28;20028;-85
2020/12/01 12:36:28;;;;;;;41.90;9.02;;;10.50;99.90;;;;;;5075484;28;20119;-83
2020/12/01 12:38:55;;;;;;;38.08;8.32;;;10.50;99.90;;;;;;5077522;28;20037;-84
2020/12/01 12:41:22;;;;;;;32.33;9.38;;;10.60;99.90;;;;;;5076873;28;20025;-83
2020/12/01 12:43:53;;;;;;;39.83;9.93;;;10.60;99.90;;;;;;5080203;28;20111;-85
2020/12/01 12:46:19;;;;;;;35.58;8.18;;;10.60;99.90;;;;;;5080853;28;20180;-85
2020/12/01 12:48:44;;;;;;;46.50;8.63;;;10.60;99.90;;;;;;5076087;28;20537;-85
2020/12/01 12:51:13;;;;;;;37.85;9.25;;;10.50;99.90;;;;;;5084620;28;20051;-84
2020/12/01 12:53:39;;;;;;;42.17;9.25;;;10.50;99.90;;;;;;5080831;28;20048;-85
2020/12/01 12:56:05;;;;;;;39.50;9.25;;;10.40;99.90;;;;;;5078866;28;20424;-84
2020/12/01 12:58:30;;;;;;;34.65;8.52;;;10.40;99.90;;;;;;5057463;28;20028;-85
2020/12/01 13:00:56;;;;;;;40.45;10.27;;;10.40;99.90;;;;;;5073753;28;20400;-83
2020/12/01 13:03:22;;;;;;;40.70;9.73;;;10.40;99.90;;;;;;5057131;28;20556;-85
2020/12/01 13:05:47;;;;;;;26.90;8.15;;;10.40;99.90;;;;;;5073666;28;20032;-83
2020/12/01 13:08:13;;;;;;;38.40;9.13;;;10.40;99.90;;;;;;5073299;28;20382;-85
2020/12/01 13:10:39;;;;;;;49.00;8.75;;;10.50;99.90;;;;;;5073232;28;20386;-84
2020/12/01 13:13:05;;;;;;;37.17;7.95;;;10.50;99.90;;;;;;5072987;28;20195;-85
2020/12/01 13:15:30;;;;;;;36.40;7.97;;;10.60;99.90;;;;;;5074344;28;20104;-84
2020/12/01 13:17:56;;;;;;;48.00;9.80;;;10.60;99.90;;;;;;5072828;28;20430;-84
2020/12/01 13:20:27;;;;;;;38.80;9.25;;;10.60;99.90;;;;;;5056398;28;20036;-85
2020/12/01 13:22:53;;;;;;;36.03;7.72;;;10.70;99.90;;;;;;5074481;28;20025;-85
2020/12/01 13:25:19;;;;;;;41.50;9.55;;;10.60;99.90;;;;;;5073144;28;20378;-86
2020/12/01 13:27:45;;;;;;;46.75;9.32;;;10.50;99.90;;;;;;5073130;28;20046;-84
2020/12/01 13:30:12;;;;;;;33.50;9.00;;;10.50;99.90;;;;;;5039670;28;20423;-84
2020/12/01 13:32:38;;;;;;;36.50;9.20;;;10.50;99.90;;;;;;5056500;28;20052;-85
2020/12/01 13:35:05;;;;;;;50.45;11.07;;;10.40;99.90;;;;;;5073871;28;20532;-85
2020/12/01 13:37:31;;;;;;;39.58;9.27;;;10.40;99.90;;;;;;5072843;28;20052;-86
2020/12/01 13:39:57;;;;;;;39.47;9.75;;;10.30;99.90;;;;;;5074073;28;20474;-84
2020/12/01 13:42:22;;;;;;;39.78;9.88;;;10.30;99.90;;;;;;5056164;28;20123;-85
2020/12/01 13:44:48;;;;;;;44.63;12.13;;;10.20;99.90;;;;;;5056849;28;20489;-85